createdAt,value
2024-05-09T00:07:43.107Z,5.60
2024-05-09T00:17:46.364Z,5.80
2024-05-09T00:27:49.729Z,5.70
2024-05-09T00:37:52.695Z,8.50
2024-05-09T00:47:56.127Z,5.70
2024-05-09T00:57:59.242Z,5.00
2024-05-09T01:08:03.110Z,5.30
2024-05-09T01:18:11.946Z,5.30
2024-05-09T01:28:16.656Z,5.30
2024-05-09T01:38:19.999Z,5.20
2024-05-09T01:48:23.541Z,4.50
2024-05-09T01:58:26.987Z,4.30
2024-05-09T02:08:30.282Z,4.50
2024-05-09T02:18:33.801Z,4.90
2024-05-09T02:28:37.120Z,4.60
2024-05-09T02:38:40.128Z,4.40
2024-05-09T02:48:43.684Z,4.30
2024-05-09T02:58:46.723Z,4.50
2024-05-09T03:08:49.784Z,4.30
2024-05-09T03:18:54.888Z,4.40
2024-05-09T03:28:58.232Z,4.20
2024-05-09T03:39:01.268Z,4.50
2024-05-09T03:49:04.441Z,3.90
2024-05-09T03:59:07.419Z,4.70
2024-05-09T04:09:10.378Z,5.20
2024-05-09T04:19:13.479Z,5.30
2024-05-09T04:29:17.023Z,6.00
2024-05-09T04:39:20.283Z,8.90
2024-05-09T04:49:23.771Z,8.60
2024-05-09T04:59:27.079Z,8.40
2024-05-09T05:09:30.207Z,7.80
2024-05-09T05:19:33.478Z,7.10
2024-05-09T05:29:36.920Z,6.40
2024-05-09T05:39:40.039Z,5.40
2024-05-09T05:49:43.179Z,5.60
2024-05-09T05:59:46.472Z,5.70
2024-05-09T06:09:50.470Z,5.30
2024-05-09T06:19:53.989Z,5.30
2024-05-09T06:29:57.151Z,5.40
2024-05-09T06:40:00.047Z,4.90
2024-05-09T06:50:03.740Z,4.10
2024-05-09T07:00:15.385Z,4.30
2024-05-09T07:10:28.682Z,3.90
2024-05-09T07:20:37.406Z,3.70
2024-05-09T07:30:41.240Z,3.50
2024-05-09T07:40:44.428Z,3.90
2024-05-09T08:00:54.740Z,3.50
2024-05-09T08:10:57.985Z,4.20
2024-05-09T08:21:01.179Z,3.90
2024-05-09T08:31:06.928Z,9.10
2024-05-09T08:41:14.424Z,2.20
2024-05-09T08:51:17.588Z,2.30
2024-05-09T09:01:21.070Z,2.50
2024-05-09T09:11:24.515Z,2.60
2024-05-09T09:21:27.478Z,2.40
2024-05-09T09:31:31.089Z,2.10
2024-05-09T09:41:36.870Z,2.20
2024-05-09T09:51:43.678Z,2.50
2024-05-09T10:01:47.357Z,2.40
2024-05-09T10:11:54.499Z,2.80
2024-05-09T10:22:04.650Z,2.90
2024-05-09T10:32:08.716Z,2.80
2024-05-09T10:42:11.851Z,2.30
2024-05-09T10:52:19.636Z,2.60
2024-05-09T11:02:22.962Z,2.50
2024-05-09T11:12:26.801Z,2.10
2024-05-09T11:22:33.324Z,2.30
2024-05-09T11:32:37.615Z,2.50
2024-05-09T11:42:40.762Z,2.20
2024-05-09T11:52:44.178Z,2.00
2024-05-09T12:02:47.148Z,2.40
2024-05-09T12:12:50.784Z,2.40
2024-05-09T12:22:54.194Z,1.90
2024-05-09T12:32:57.578Z,2.40
2024-05-09T12:43:00.729Z,2.50
2024-05-09T12:53:05.209Z,1.90
2024-05-09T13:03:08.693Z,2.70
2024-05-09T13:13:12.622Z,2.00
2024-05-09T13:23:16.005Z,1.80
2024-05-09T13:33:19.311Z,2.30
2024-05-09T13:43:23.393Z,1.90
2024-05-09T13:53:26.907Z,2.10
2024-05-09T14:03:30.156Z,2.10
2024-05-09T14:13:33.647Z,3.20
2024-05-09T14:23:36.676Z,2.30
2024-05-09T14:33:40.155Z,2.40
2024-05-09T14:43:43.204Z,2.00
2024-05-09T14:53:46.365Z,1.90
2024-05-09T15:03:49.795Z,1.80
2024-05-09T15:13:52.995Z,1.90
2024-05-09T15:23:56.021Z,2.20
2024-05-09T15:33:59.538Z,1.60
2024-05-09T15:44:02.722Z,2.00
2024-05-09T15:54:05.861Z,2.10
2024-05-09T16:04:10.855Z,1.70
2024-05-09T16:14:16.634Z,1.80
2024-05-09T16:24:19.663Z,1.80
2024-05-09T16:34:22.882Z,2.00
2024-05-09T16:44:26.149Z,2.30
2024-05-09T16:54:29.206Z,3.00
2024-05-09T17:04:32.315Z,3.10
2024-05-09T17:14:35.665Z,4.10
2024-05-09T17:24:38.824Z,3.60
2024-05-09T17:34:42.394Z,3.90
2024-05-09T17:44:45.335Z,3.10
2024-05-09T17:54:48.622Z,3.50
2024-05-09T18:04:51.760Z,3.50
2024-05-09T18:14:54.862Z,3.50
2024-05-09T18:24:57.988Z,4.30
2024-05-09T18:35:04.729Z,4.60
2024-05-09T18:45:08.581Z,5.20
2024-05-09T18:55:14.928Z,6.90
2024-05-09T19:05:18.466Z,7.00
2024-05-09T19:15:21.506Z,8.10
2024-05-09T19:25:24.806Z,8.70
2024-05-09T19:35:28.126Z,6.80
2024-05-09T19:45:36.357Z,7.20
2024-05-09T19:55:42.990Z,7.90
2024-05-09T20:05:49.371Z,9.50
2024-05-09T20:15:53.090Z,8.60
2024-05-09T20:25:56.201Z,8.60
2024-05-09T20:36:01.809Z,8.00
2024-05-09T20:46:08.129Z,7.30
2024-05-09T20:56:11.658Z,7.20
2024-05-09T21:06:14.692Z,6.80
2024-05-09T21:16:17.912Z,8.10
2024-05-09T21:26:23.839Z,6.60
2024-05-09T21:36:27.281Z,7.10
2024-05-09T21:46:30.342Z,6.20
2024-05-09T21:56:33.504Z,7.30
2024-05-09T22:06:36.891Z,7.00
2024-05-09T22:16:41.068Z,7.80
2024-05-09T22:26:44.935Z,8.50
2024-05-09T22:36:48.634Z,8.10
2024-05-09T22:46:52.106Z,7.10
2024-05-09T22:56:55.239Z,7.80
2024-05-09T23:06:58.531Z,7.90
2024-05-09T23:17:01.886Z,6.10
2024-05-09T23:27:05.133Z,6.90
2024-05-09T23:37:10.876Z,7.30
2024-05-09T23:47:14.231Z,6.50
2024-05-09T23:57:17.472Z,7.90
